KLSE

La Crosse Regional Airport

La Crosse, Wisconsin, USA
KLSE 252337Z 2600/2624 31004KT P6SM SKC FM261700 26009KT P6SM SCT080 FM262000 30012G20KT P6SM BKN060 FM262300 33012KT P6SM BKN040
Issued Valid From Valid To
Apr-25 @ 23:37 UTC
(4 hours ago)
Apr-26 @ 00:00 UTC
(4 hours ago)
Apr-27 @ 00:00 UTC
(in 20 hours)
Apr-26 @ 00:00 to Apr-26 @ 17:00
KLSE 252337Z 2600/2624 31004KT P6SM SKC
Wind Visibility Clouds
310° at 4 knots Greater than 6 miles
  • Clear skies
From Apr-26 @ 17:00 to Apr-26 @ 20:00
FM261700 26009KT P6SM SCT080
Wind Visibility Clouds
260° at 9 knots Greater than 6 miles
  • Scattered at 8,000' AGL
From Apr-26 @ 20:00 to Apr-26 @ 23:00
FM262000 30012G20KT P6SM BKN060
Wind Visibility Clouds
300° at 12 knots
 Gusting to 20 knots
Greater than 6 miles
  • Broken at 6,000' AGL
From Apr-26 @ 23:00 to Apr-27 @ 00:00
FM262300 33012KT P6SM BKN040
Wind Visibility Clouds
330° at 12 knots Greater than 6 miles
  • Broken at 4,000' AGL
KLSE 252337Z 2600/2624 31004KT P6SM SKC FM261700 26009KT P6SM SCT080 FM262000 30012G20KT P6SM BKN060 FM262300 33012KT P6SM BKN040
Issued Apr-25 @ 23:37 UTC
(4 hours ago)
Valid From Apr-26 @ 00:00 UTC
(4 hours ago)
Valid To Apr-27 @ 00:00 UTC
(in 20 hours)
Apr-26 @ 00:00 - Apr-26 @ 17:00
Wind Visibility
310° at 4 knots Greater than 6 miles
Clouds
  • Clear skies
From Apr-26 @ 17:00 - Apr-26 @ 20:00
Wind Visibility
260° at 9 knots Greater than 6 miles
Clouds
  • Scattered at 8,000' AGL
From Apr-26 @ 20:00 - Apr-26 @ 23:00
Wind Visibility
300° at 12 knots
 Gusting to 20 knots
Greater than 6 miles
Clouds
  • Broken at 6,000' AGL
From Apr-26 @ 23:00 - Apr-27 @ 00:00
Wind Visibility
330° at 12 knots Greater than 6 miles
Clouds
  • Broken at 4,000' AGL